Time;durP1;ratioP1;P1;durP2;ratioP2;P2;SDS_P1;SDS_P2;PMS_P1;PMS_P2;Temp;Humidity;BMP_temperature;BMP_pressure;BME280_temperature;BME280_humidity;BME280_pressure;Samples;Min_cycle;Max_cycle;Signal;HPM_P1;HPM_P2
2023/05/13 00:02:09;;;;;;;1999.90;999.90;;;27.20;94.40;;;;;;5094615;28;20044;-68
2023/05/13 00:04:37;;;;;;;1999.90;999.90;;;28.00;93.40;;;;;;5088765;28;20485;-68
2023/05/13 00:07:04;;;;;;;1999.90;999.90;;;28.50;92.20;;;;;;5096208;28;20382;-68
2023/05/13 00:09:32;;;;;;;1999.90;999.90;;;28.50;92.40;;;;;;5088849;28;20501;-67
2023/05/13 00:11:59;;;;;;;1999.90;999.90;;;28.60;91.70;;;;;;5093720;28;20028;-68
2023/05/13 00:14:26;;;;;;;1999.90;999.90;;;28.60;92.10;;;;;;5084989;28;20026;-68
2023/05/13 00:16:54;;;;;;;1999.90;999.90;;;29.00;92.00;;;;;;5089488;28;20028;-69
2023/05/13 00:19:21;;;;;;;1999.90;999.90;;;29.70;91.20;;;;;;5085564;28;20393;-69
2023/05/13 00:21:49;;;;;;;1999.90;999.90;;;30.00;90.40;;;;;;5082307;28;20079;-66
2023/05/13 00:24:16;;;;;;;1999.90;999.90;;;30.10;90.20;;;;;;5080279;28;20390;-68
2023/05/13 00:26:45;;;;;;;1999.90;999.90;;;29.80;90.30;;;;;;5094752;28;20016;-68
2023/05/13 00:29:12;;;;;;;1999.90;999.90;;;30.00;90.60;;;;;;5091278;28;20036;-67
2023/05/13 00:31:40;;;;;;;1999.90;999.90;;;29.90;90.60;;;;;;5086660;28;20470;-67
2023/05/13 00:34:07;;;;;;;1999.90;999.90;;;30.00;90.60;;;;;;5082597;28;20028;-69
2023/05/13 00:36:35;;;;;;;1999.90;999.90;;;30.30;90.30;;;;;;5091622;28;20051;-69
2023/05/13 00:39:03;;;;;;;1999.90;999.90;;;30.90;88.80;;;;;;5090472;28;20025;-70
2023/05/13 00:41:31;;;;;;;1999.90;999.90;;;31.00;89.30;;;;;;5088530;28;20043;-68
2023/05/13 00:43:58;;;;;;;1999.90;999.90;;;31.20;88.40;;;;;;5073238;28;20036;-68
2023/05/13 00:46:29;;;;;;;1999.90;999.90;;;31.10;88.30;;;;;;5093493;28;20020;-69
2023/05/13 00:48:57;;;;;;;1999.90;999.90;;;31.30;87.70;;;;;;5088852;28;20082;-70
2023/05/13 00:51:25;;;;;;;1999.90;999.90;;;31.40;87.40;;;;;;5086375;28;20024;-70
2023/05/13 00:53:52;;;;;;;1999.90;999.90;;;31.60;86.90;;;;;;5093207;28;20024;-69
2023/05/13 00:56:21;;;;;;;1999.90;999.90;;;31.50;86.80;;;;;;5090885;28;20502;-69
2023/05/13 00:58:49;;;;;;;1999.90;999.90;;;31.30;87.10;;;;;;5083131;28;20147;-69
2023/05/13 01:01:40;;;;;;;1999.90;999.90;;;31.30;87.20;;;;;;5086984;28;20028;-69
2023/05/13 01:04:26;;;;;;;1999.90;999.90;;;31.40;87.20;;;;;;5089985;28;20046;-69
2023/05/13 01:07:08;;;;;;;1999.90;999.90;;;31.10;87.20;;;;;;5093289;28;20020;-68
2023/05/13 01:10:01;;;;;;;1999.90;999.90;;;30.80;87.20;;;;;;5084319;28;20106;-69
2023/05/13 01:12:40;;;;;;;1999.90;999.90;;;30.90;87.30;;;;;;5095525;28;20024;-70
2023/05/13 01:15:11;;;;;;;1999.90;999.90;;;31.30;86.90;;;;;;5085499;28;20420;-69
2023/05/13 01:18:13;;;;;;;1999.90;999.90;;;31.30;86.90;;;;;;5083907;28;20042;-68
2023/05/13 01:20:42;;;;;;;1999.90;999.90;;;31.70;85.90;;;;;;5064307;28;20126;-69
2023/05/13 01:23:11;;;;;;;1999.90;999.90;;;32.10;84.60;;;;;;5084517;28;20158;-68
2023/05/13 01:25:40;;;;;;;1999.90;999.90;;;32.10;85.10;;;;;;5089216;28;20674;-68
2023/05/13 01:28:08;;;;;;;1999.90;999.90;;;32.50;84.60;;;;;;5090400;28;20042;-69
2023/05/13 01:30:36;;;;;;;1999.90;999.90;;;32.70;82.90;;;;;;5085479;28;20032;-68
2023/05/13 01:33:04;;;;;;;1999.90;999.90;;;32.70;83.60;;;;;;5087598;28;20111;-69
2023/05/13 01:35:32;;;;;;;1999.90;999.90;;;32.80;83.20;;;;;;5086265;28;20612;-68
2023/05/13 01:38:01;;;;;;;1999.90;999.90;;;32.10;82.50;;;;;;5089734;28;20036;-69
2023/05/13 01:40:30;;;;;;;1999.90;999.90;;;30.90;84.10;;;;;;5091999;28;20042;-70
2023/05/13 01:42:58;;;;;;;1999.90;999.90;;;30.60;85.60;;;;;;5095699;28;20035;-68
2023/05/13 01:45:27;;;;;;;1999.90;999.90;;;31.00;85.70;;;;;;5085857;28;20382;-69
2023/05/13 01:47:54;;;;;;;1999.90;999.90;;;31.70;84.70;;;;;;5090702;28;20020;-68
2023/05/13 01:50:22;;;;;;;1999.90;999.90;;;31.60;84.60;;;;;;5087241;28;20036;-68
2023/05/13 01:52:49;;;;;;;1999.90;999.90;;;30.90;84.80;;;;;;5094134;28;20510;-68
2023/05/13 01:55:17;;;;;;;1999.90;999.90;;;31.00;85.90;;;;;;5091295;28;20154;-68
2023/05/13 01:57:44;;;;;;;1999.90;999.90;;;30.40;85.00;;;;;;5093280;28;20036;-69
2023/05/13 02:00:12;;;;;;;1999.90;999.90;;;29.30;85.90;;;;;;5094022;28;20047;-68
2023/05/13 02:02:39;;;;;;;1999.90;999.90;;;28.20;87.40;;;;;;5097201;28;20036;-67
2023/05/13 02:05:07;;;;;;;1999.90;999.90;;;27.20;89.10;;;;;;5081017;28;20103;-68
2023/05/13 02:07:34;;;;;;;1999.90;999.90;;;26.30;90.30;;;;;;5084863;28;20020;-69
2023/05/13 02:10:01;;;;;;;1999.90;999.90;;;26.50;91.00;;;;;;5089840;28;20050;-68
2023/05/13 02:12:29;;;;;;;1999.90;999.90;;;27.60;90.20;;;;;;5095107;28;20032;-69
2023/05/13 02:14:56;;;;;;;1999.90;999.90;;;28.50;88.20;;;;;;5093902;28;20024;-68
2023/05/13 02:17:23;;;;;;;1999.90;999.90;;;29.20;87.40;;;;;;5095479;28;20101;-69
2023/05/13 02:19:51;;;;;;;1999.90;999.90;;;29.90;87.10;;;;;;5087494;28;20025;-68
2023/05/13 02:22:18;;;;;;;1999.90;999.90;;;30.40;86.00;;;;;;5094110;28;20078;-70
2023/05/13 02:24:45;;;;;;;1999.90;999.90;;;30.70;84.80;;;;;;5088720;28;20036;-68
2023/05/13 02:27:15;;;;;;;1999.90;999.90;;;31.00;84.00;;;;;;5092930;28;20020;-69
2023/05/13 02:29:42;;;;;;;1999.90;999.90;;;31.00;84.40;;;;;;5087044;28;20504;-70
2023/05/13 02:32:10;;;;;;;1999.90;999.90;;;31.20;84.70;;;;;;5100790;28;20069;-70
2023/05/13 02:34:37;;;;;;;1999.90;999.90;;;31.30;83.80;;;;;;5074183;28;20131;-69
2023/05/13 02:37:06;;;;;;;1999.90;999.90;;;31.30;83.20;;;;;;5098549;28;20030;-69
2023/05/13 02:39:33;;;;;;;1999.90;999.90;;;31.30;83.50;;;;;;5089445;28;20031;-68
2023/05/13 02:42:01;;;;;;;1999.90;999.90;;;31.20;83.90;;;;;;5105190;28;20035;-68
2023/05/13 02:44:29;;;;;;;1999.90;999.90;;;30.50;84.10;;;;;;5093728;28;20040;-69
2023/05/13 02:46:56;;;;;;;1999.90;999.90;;;29.50;84.50;;;;;;5095357;28;20131;-68
2023/05/13 02:49:23;;;;;;;1999.90;999.90;;;29.40;86.90;;;;;;5091448;28;20028;-69
2023/05/13 02:51:51;;;;;;;1999.90;999.90;;;28.80;85.80;;;;;;5094344;28;20032;-69
2023/05/13 02:54:18;;;;;;;1999.90;999.90;;;28.10;86.70;;;;;;5088193;28;20032;-69
2023/05/13 02:56:45;;;;;;;1999.90;999.90;;;27.80;87.40;;;;;;5092290;28;20032;-69
2023/05/13 02:59:13;;;;;;;1999.90;999.90;;;27.30;87.70;;;;;;5086118;28;20257;-69
2023/05/13 03:01:40;;;;;;;1999.90;999.90;;;26.80;88.90;;;;;;5088234;28;20035;-70
2023/05/13 03:04:07;;;;;;;1999.90;999.90;;;26.20;90.30;;;;;;5087222;28;20442;-69
2023/05/13 03:06:35;;;;;;;1999.90;999.90;;;25.60;92.40;;;;;;5091881;28;20047;-69
2023/05/13 03:09:02;;;;;;;1999.90;999.90;;;24.80;94.40;;;;;;5088004;28;20035;-69
2023/05/13 03:11:30;;;;;;;1999.90;999.90;;;24.00;95.70;;;;;;5088933;28;20067;-71
2023/05/13 03:13:57;;;;;;;1999.90;999.90;;;23.30;96.60;;;;;;5097232;28;20021;-68
2023/05/13 03:16:25;;;;;;;1999.90;999.90;;;22.70;98.90;;;;;;5092952;28;20039;-69
2023/05/13 03:18:54;;;;;;;1999.90;999.90;;;22.10;99.90;;;;;;5082481;28;20047;-69
2023/05/13 03:21:21;;;;;;;1999.90;999.90;;;21.50;99.90;;;;;;5096644;28;20394;-69
2023/05/13 03:23:48;;;;;;;1999.90;999.90;;;21.20;99.90;;;;;;5090323;28;20035;-68
2023/05/13 03:26:16;;;;;;;1999.90;999.90;;;21.10;99.90;;;;;;5091837;28;20080;-68
2023/05/13 03:28:43;;;;;;;1999.90;999.90;;;21.00;99.90;;;;;;5092876;28;20506;-68
2023/05/13 03:31:10;;;;;;;1999.90;999.90;;;21.10;99.90;;;;;;5096588;28;20034;-68
2023/05/13 03:33:38;;;;;;;1999.90;999.90;;;21.20;99.90;;;;;;5093906;28;20020;-69
2023/05/13 03:36:06;;;;;;;1999.90;999.90;;;21.20;99.90;;;;;;5094620;28;20069;-69
2023/05/13 03:38:33;;;;;;;1999.90;999.90;;;21.30;99.90;;;;;;5096000;28;20478;-69
2023/05/13 03:41:00;;;;;;;1999.90;999.90;;;21.40;99.90;;;;;;5090464;28;20032;-70
2023/05/13 03:43:28;;;;;;;1999.90;999.90;;;21.50;99.90;;;;;;5097422;28;20040;-70
2023/05/13 03:45:55;;;;;;;1999.90;999.90;;;21.50;99.90;;;;;;5091350;28;20036;-68
2023/05/13 03:48:22;;;;;;;1999.90;999.90;;;21.50;99.90;;;;;;5075290;28;20039;-68
2023/05/13 03:50:51;;;;;;;1999.90;999.90;;;21.60;99.90;;;;;;5093624;28;20025;-67
2023/05/13 03:53:19;;;;;;;1999.90;999.90;;;21.70;99.90;;;;;;5092753;28;20046;-68
2023/05/13 03:55:47;;;;;;;1999.90;999.90;;;21.70;99.90;;;;;;5093209;28;20024;-68
2023/05/13 03:58:15;;;;;;;1999.90;999.90;;;21.80;99.90;;;;;;5087767;28;20028;-69
2023/05/13 04:00:45;;;;;;;1999.90;999.90;;;21.80;99.90;;;;;;5092463;28;20056;-70
2023/05/13 04:03:17;;;;;;;1999.90;999.90;;;21.70;99.90;;;;;;5096643;28;20175;-70
2023/05/13 04:05:46;;;;;;;1999.90;999.90;;;21.50;99.90;;;;;;5074382;28;20024;-69
2023/05/13 04:08:14;;;;;;;1999.90;999.90;;;21.30;99.90;;;;;;5081251;28;20025;-69
2023/05/13 04:10:41;;;;;;;1999.90;999.90;;;21.10;99.90;;;;;;5098116;28;20027;-70
2023/05/13 04:13:09;;;;;;;1999.90;999.90;;;21.00;99.90;;;;;;5103913;28;20265;-69
2023/05/13 04:15:36;;;;;;;1999.90;999.90;;;20.90;99.90;;;;;;5098597;28;20111;-68
2023/05/13 04:18:03;;;;;;;1999.90;999.90;;;20.90;99.90;;;;;;5092176;28;20028;-69
2023/05/13 04:20:31;;;;;;;1999.90;999.90;;;20.90;99.90;;;;;;5088895;28;20115;-68
2023/05/13 04:22:58;;;;;;;1999.90;999.90;;;20.80;99.90;;;;;;5101285;28;20157;-68
2023/05/13 04:25:25;;;;;;;1999.90;999.90;;;20.70;99.90;;;;;;5086472;28;20024;-70
2023/05/13 04:27:53;;;;;;;1999.90;999.90;;;20.60;99.90;;;;;;5092233;28;20136;-69
2023/05/13 04:30:20;;;;;;;1999.90;999.90;;;20.30;99.90;;;;;;5081709;28;20064;-69
2023/05/13 04:32:47;;;;;;;1999.90;999.90;;;20.00;99.90;;;;;;5102566;28;20077;-69
2023/05/13 04:35:15;;;;;;;1999.90;999.90;;;19.70;99.90;;;;;;5080661;28;20574;-70
2023/05/13 04:37:42;;;;;;;1999.90;999.90;;;19.40;99.90;;;;;;5086494;28;20040;-72
2023/05/13 04:40:10;;;;;;;1999.90;999.90;;;19.10;99.90;;;;;;5084197;28;20890;-69
2023/05/13 04:42:37;;;;;;;1999.90;999.90;;;18.80;99.90;;;;;;5087125;28;20039;-71
2023/05/13 04:45:05;;;;;;;1999.90;999.90;;;18.60;99.90;;;;;;5085774;28;20035;-71
2023/05/13 04:47:36;;;;;;;1999.90;999.90;;;18.50;99.90;;;;;;5103101;28;20028;-70
2023/05/13 04:50:04;;;;;;;1999.90;999.90;;;18.40;99.90;;;;;;5086046;28;20528;-71
2023/05/13 04:52:31;;;;;;;1999.90;999.90;;;18.30;99.90;;;;;;5091063;28;20111;-68
2023/05/13 04:54:58;;;;;;;1999.90;999.90;;;18.20;99.90;;;;;;5087722;28;20036;-70
2023/05/13 04:57:26;;;;;;;1999.90;999.90;;;18.20;99.90;;;;;;5090631;28;20024;-69
2023/05/13 04:59:53;;;;;;;1999.90;999.90;;;18.20;99.90;;;;;;5079747;28;20085;-69
2023/05/13 05:02:20;;;;;;;1999.90;999.90;;;18.10;99.90;;;;;;5086189;28;20047;-71
2023/05/13 05:04:48;;;;;;;1999.90;999.90;;;17.80;99.90;;;;;;5091532;28;20023;-70
2023/05/13 05:07:15;;;;;;;1999.90;999.90;;;17.50;99.90;;;;;;5090366;28;20040;-70
2023/05/13 05:09:42;;;;;;;1999.90;999.90;;;17.10;99.90;;;;;;5084025;28;20028;-70
2023/05/13 05:12:10;;;;;;;1999.90;999.90;;;16.80;99.90;;;;;;5090614;28;20085;-68
2023/05/13 05:14:37;;;;;;;1999.90;999.90;;;16.60;99.90;;;;;;5087834;28;20027;-70
2023/05/13 05:17:04;;;;;;;1999.90;999.90;;;16.50;99.90;;;;;;5095220;28;20382;-72
2023/05/13 05:19:32;;;;;;;1999.90;999.90;;;16.30;99.90;;;;;;5094096;28;20024;-72
2023/05/13 05:21:59;;;;;;;1999.90;999.90;;;16.30;99.90;;;;;;5088092;28;20032;-72
2023/05/13 05:24:26;;;;;;;1999.90;999.90;;;16.40;99.90;;;;;;5090632;28;20035;-72
2023/05/13 05:26:54;;;;;;;1999.90;999.90;;;16.40;99.90;;;;;;5084269;28;20024;-71
2023/05/13 05:29:22;;;;;;;1999.90;999.90;;;16.50;99.90;;;;;;5091026;28;20027;-71
2023/05/13 05:31:50;;;;;;;1999.90;999.90;;;16.60;99.90;;;;;;5087965;28;20514;-67
2023/05/13 05:34:17;;;;;;;1999.90;999.90;;;16.60;99.90;;;;;;5087901;28;20036;-71
2023/05/13 05:36:44;;;;;;;1999.90;999.90;;;16.60;99.90;;;;;;5097905;28;20039;-69
2023/05/13 05:39:12;;;;;;;1999.90;999.90;;;16.60;99.90;;;;;;5090312;28;20063;-71
2023/05/13 05:41:39;;;;;;;1999.90;999.90;;;16.60;99.90;;;;;;5094528;28;20612;-69
2023/05/13 05:44:12;;;;;;;1999.90;999.90;;;16.60;99.90;;;;;;5089425;28;20032;-70
2023/05/13 05:46:40;;;;;;;1999.90;999.90;;;16.60;99.90;;;;;;5085255;28;20038;-68
2023/05/13 05:49:07;;;;;;;1999.90;999.90;;;16.50;99.90;;;;;;5091302;28;20107;-69
2023/05/13 05:51:35;;;;;;;1999.90;999.90;;;16.50;99.90;;;;;;5096904;28;20039;-69
2023/05/13 05:54:02;;;;;;;1999.90;999.90;;;16.50;99.90;;;;;;5092301;28;20024;-70
2023/05/13 05:56:29;;;;;;;1999.90;999.90;;;16.40;99.90;;;;;;5094244;28;20478;-70
2023/05/13 05:58:57;;;;;;;1999.90;999.90;;;16.40;99.90;;;;;;5087701;28;20064;-69
2023/05/13 06:01:24;;;;;;;1999.90;999.90;;;16.30;99.90;;;;;;5091949;28;20461;-68
2023/05/13 06:03:51;;;;;;;1999.90;999.90;;;16.30;99.90;;;;;;5091163;28;20036;-67
2023/05/13 06:06:19;;;;;;;1999.90;999.90;;;16.20;99.90;;;;;;5091238;28;20027;-68
2023/05/13 06:08:46;;;;;;;1999.90;999.90;;;16.20;99.90;;;;;;5096111;28;20427;-71
2023/05/13 06:11:13;;;;;;;1999.90;999.90;;;16.20;99.90;;;;;;5092328;28;20024;-72
2023/05/13 06:13:41;;;;;;;1999.90;999.90;;;16.10;99.90;;;;;;5098138;28;20019;-68
2023/05/13 06:16:08;;;;;;;1999.90;999.90;;;16.00;99.90;;;;;;5094482;28;20028;-70
2023/05/13 06:18:37;;;;;;;1999.90;999.90;;;16.00;99.90;;;;;;5094940;28;20020;-68
2023/05/13 06:21:05;;;;;;;1999.90;999.90;;;15.90;99.90;;;;;;5097166;28;20377;-68
2023/05/13 06:23:32;;;;;;;1999.90;999.90;;;15.90;99.90;;;;;;5091740;28;20042;-67
2023/05/13 06:25:59;;;;;;;1999.90;999.90;;;15.80;99.90;;;;;;5103005;28;20032;-67
2023/05/13 06:28:27;;;;;;;1999.90;999.90;;;15.80;99.90;;;;;;5097920;28;20432;-68
2023/05/13 06:30:54;;;;;;;1999.90;999.90;;;15.80;99.90;;;;;;5086226;28;20028;-68
2023/05/13 06:33:21;;;;;;;1999.90;999.90;;;15.80;99.90;;;;;;5091404;28;20028;-68
2023/05/13 06:35:49;;;;;;;1999.90;999.90;;;15.80;99.90;;;;;;5085278;28;20054;-72
2023/05/13 06:38:19;;;;;;;1999.90;999.90;;;15.80;99.90;;;;;;5084051;28;20027;-71
2023/05/13 06:40:47;;;;;;;1999.90;999.90;;;15.80;99.90;;;;;;5089415;28;20080;-68
2023/05/13 06:43:16;;;;;;;1999.90;999.90;;;15.80;99.90;;;;;;5089823;28;20390;-68
2023/05/13 06:45:44;;;;;;;1999.90;999.90;;;15.80;99.90;;;;;;5086186;28;20020;-72
2023/05/13 06:48:13;;;;;;;1999.90;999.90;;;15.90;99.90;;;;;;5095269;28;20032;-69
2023/05/13 06:50:40;;;;;;;1999.90;999.90;;;15.80;99.90;;;;;;5075515;28;20021;-70
2023/05/13 06:53:11;;;;;;;1999.90;999.90;;;15.70;99.90;;;;;;5062494;28;20067;-68
2023/05/13 06:55:40;;;;;;;1999.90;999.90;;;15.60;99.90;;;;;;5082750;28;20051;-68
2023/05/13 06:58:08;;;;;;;1999.90;999.90;;;15.50;99.90;;;;;;5090953;28;20123;-69
2023/05/13 07:00:40;;;;;;;1999.90;999.90;;;15.50;99.90;;;;;;5089750;28;20081;-69
2023/05/13 07:03:08;;;;;;;1999.90;999.90;;;15.50;99.90;;;;;;5085625;28;20123;-69
2023/05/13 07:05:35;;;;;;;1999.90;999.90;;;15.50;99.90;;;;;;5091199;28;20022;-70
2023/05/13 07:08:07;;;;;;;1999.90;999.90;;;15.50;99.90;;;;;;5086091;28;20405;-70
2023/05/13 07:10:35;;;;;;;1999.90;999.90;;;15.40;99.90;;;;;;5084914;28;20086;-70
2023/05/13 07:13:04;;;;;;;1999.90;999.90;;;15.20;99.90;;;;;;5086938;28;20033;-69
2023/05/13 07:15:31;;;;;;;1999.90;999.90;;;15.10;99.90;;;;;;5083871;28;20089;-71
2023/05/13 07:18:02;;;;;;;1999.90;999.90;;;15.10;99.90;;;;;;5085633;28;20024;-68
2023/05/13 07:20:30;;;;;;;1999.90;999.90;;;15.10;99.90;;;;;;5086454;28;20071;-71
2023/05/13 07:22:57;;;;;;;1999.90;999.90;;;15.00;99.90;;;;;;5091502;28;20044;-70
2023/05/13 07:25:25;;;;;;;1999.90;999.90;;;15.10;99.90;;;;;;5085847;28;20028;-68
2023/05/13 07:27:52;;;;;;;1999.90;999.90;;;15.10;99.90;;;;;;5083729;28;20023;-72
2023/05/13 07:30:19;;;;;;;1999.90;999.90;;;15.20;99.90;;;;;;5084137;28;20423;-68
2023/05/13 07:32:47;;;;;;;1999.90;999.90;;;15.20;99.90;;;;;;5083635;28;20478;-70
2023/05/13 07:35:16;;;;;;;1999.90;999.90;;;15.20;99.90;;;;;;5084653;28;20569;-68
2023/05/13 07:37:44;;;;;;;1999.90;999.90;;;15.20;99.90;;;;;;5086036;28;20026;-71
2023/05/13 07:40:12;;;;;;;1999.90;999.90;;;15.30;99.90;;;;;;5087338;28;20394;-67
2023/05/13 07:42:40;;;;;;;1999.90;999.90;;;15.30;99.90;;;;;;5087468;28;20437;-72
2023/05/13 07:45:10;;;;;;;1999.90;999.90;;;15.30;99.90;;;;;;5087219;28;20025;-69
2023/05/13 07:47:38;;;;;;;1999.90;999.90;;;15.40;99.90;;;;;;5096396;28;20033;-72
2023/05/13 07:50:06;;;;;;;1999.90;999.90;;;15.40;99.90;;;;;;5084223;28;20032;-70
2023/05/13 07:52:33;;;;;;;1999.90;999.90;;;15.40;99.90;;;;;;5094606;28;20470;-71
2023/05/13 07:55:01;;;;;;;1999.90;999.90;;;15.50;99.90;;;;;;5080976;28;20036;-68
2023/05/13 07:57:30;;;;;;;1999.90;999.90;;;15.50;99.90;;;;;;5097234;28;20115;-71
2023/05/13 07:59:57;;;;;;;1999.90;999.90;;;15.50;99.90;;;;;;5084639;28;20388;-71
2023/05/13 08:02:25;;;;;;;1999.90;999.90;;;15.60;99.90;;;;;;5070280;28;20498;-71
2023/05/13 08:04:54;;;;;;;1999.90;999.90;;;15.60;99.90;;;;;;5084770;28;20016;-71
2023/05/13 08:07:21;;;;;;;1999.90;999.90;;;15.60;99.90;;;;;;5088762;28;20177;-69
2023/05/13 08:09:48;;;;;;;1999.90;999.90;;;15.60;99.90;;;;;;5086461;28;20036;-68
2023/05/13 08:12:16;;;;;;;1999.90;999.90;;;15.60;99.90;;;;;;5090226;28;20036;-69
2023/05/13 08:14:43;;;;;;;1999.90;999.90;;;15.60;99.90;;;;;;5089288;28;20024;-69
2023/05/13 08:17:11;;;;;;;1999.90;999.90;;;15.60;99.90;;;;;;5082694;28;20032;-70
2023/05/13 08:19:39;;;;;;;1999.90;999.90;;;15.60;99.90;;;;;;5078206;28;20024;-68
2023/05/13 08:22:06;;;;;;;1999.90;999.90;;;15.60;99.90;;;;;;5087201;28;20036;-68
2023/05/13 08:24:34;;;;;;;1999.90;999.90;;;15.60;99.90;;;;;;5086876;28;20035;-66
2023/05/13 08:27:02;;;;;;;1999.90;999.90;;;15.60;99.90;;;;;;5074491;28;20382;-68
2023/05/13 08:29:29;;;;;;;1999.90;999.90;;;15.60;99.90;;;;;;5083428;28;20035;-69
2023/05/13 08:31:57;;;;;;;1999.90;999.90;;;15.60;99.90;;;;;;5088359;28;20027;-68
2023/05/13 08:34:24;;;;;;;1999.90;999.90;;;15.60;99.90;;;;;;5084600;28;20466;-69
2023/05/13 08:36:54;;;;;;;1999.90;999.90;;;15.50;99.90;;;;;;5088292;28;20032;-68
2023/05/13 08:39:22;;;;;;;1999.90;999.90;;;15.50;99.90;;;;;;5074425;28;20029;-68
2023/05/13 08:41:51;;;;;;;1999.90;999.90;;;15.50;99.90;;;;;;5085020;28;20040;-68
2023/05/13 08:44:21;;;;;;;1999.90;999.90;;;15.50;99.90;;;;;;5089181;28;21218;-70
2023/05/13 08:46:59;;;;;;;1999.90;999.90;;;15.50;99.90;;;;;;5089496;28;20040;-69
2023/05/13 08:49:27;;;;;;;1999.90;999.90;;;15.50;99.90;;;;;;5089424;28;20031;-69
2023/05/13 08:51:54;;;;;;;1999.90;999.90;;;15.50;99.90;;;;;;5055368;28;20470;-68
2023/05/13 08:54:22;;;;;;;1999.90;999.90;;;15.50;99.90;;;;;;5093773;28;20517;-70
2023/05/13 08:56:50;;;;;;;1999.90;999.90;;;15.50;99.90;;;;;;5098462;28;20047;-70
2023/05/13 08:59:18;;;;;;;1999.90;999.90;;;15.50;99.90;;;;;;5076156;28;20049;-70
2023/05/13 09:01:46;;;;;;;1999.90;999.90;;;15.50;99.90;;;;;;5092597;28;20472;-68
2023/05/13 09:04:18;;;;;;;1999.90;999.90;;;15.50;99.90;;;;;;5089949;28;20513;-70
2023/05/13 09:06:50;;;;;;;1999.90;999.90;;;15.40;99.90;;;;;;5095194;28;20308;-68
2023/05/13 09:09:17;;;;;;;1999.90;999.90;;;15.30;99.90;;;;;;5089282;28;20039;-70
2023/05/13 09:11:47;;;;;;;1999.90;999.90;;;15.20;99.90;;;;;;5090975;28;20107;-70
2023/05/13 09:14:19;;;;;;;1999.90;999.90;;;15.10;99.90;;;;;;5083517;28;20101;-69
2023/05/13 09:16:49;;;;;;;1999.90;999.90;;;15.00;99.90;;;;;;5087099;28;20063;-67
2023/05/13 09:19:16;;;;;;;1999.90;999.90;;;14.90;99.90;;;;;;5092416;28;20044;-69
2023/05/13 09:21:44;;;;;;;1999.90;999.90;;;14.90;99.90;;;;;;5092995;28;20016;-68
2023/05/13 09:24:20;;;;;;;1999.90;999.90;;;14.80;99.90;;;;;;5089885;28;20036;-69
2023/05/13 09:26:47;;;;;;;;;;;14.80;99.90;;;;;;5097460;28;20081;-68
2023/05/13 09:29:25;;;;;;;1999.90;999.90;;;14.70;99.90;;;;;;5091890;28;19915;-70
2023/05/13 09:31:55;;;;;;;1999.90;999.90;;;14.60;99.90;;;;;;5096235;28;20513;-69
2023/05/13 09:34:27;;;;;;;1999.90;999.90;;;14.60;99.90;;;;;;5093848;28;20032;-69
2023/05/13 09:37:03;;;;;;;1999.90;999.90;;;14.60;99.90;;;;;;5088566;28;20036;-69
2023/05/13 09:39:33;;;;;;;1999.90;999.90;;;14.50;99.90;;;;;;5087581;28;20027;-68
2023/05/13 09:42:01;;;;;;;1999.90;999.90;;;14.50;99.90;;;;;;5094960;28;20039;-69
2023/05/13 09:44:29;;;;;;;1999.90;999.90;;;14.50;99.90;;;;;;5089559;28;20478;-70
2023/05/13 09:46:56;;;;;;;1999.90;999.90;;;14.40;99.90;;;;;;5080427;28;20446;-69
2023/05/13 09:49:25;;;;;;;1999.90;999.90;;;14.40;99.90;;;;;;5089013;28;20498;-68
2023/05/13 09:51:53;;;;;;;1999.90;999.90;;;14.30;99.90;;;;;;5088570;28;20039;-68
2023/05/13 09:54:20;;;;;;;1999.90;999.90;;;14.30;99.90;;;;;;5080896;28;20417;-70
2023/05/13 09:56:48;;;;;;;1999.90;999.90;;;14.30;99.90;;;;;;5090908;28;20654;-67
2023/05/13 09:59:16;;;;;;;1999.90;999.90;;;14.30;99.90;;;;;;5079640;28;20083;-69
2023/05/13 10:01:44;;;;;;;1999.90;999.90;;;14.30;99.90;;;;;;5089294;28;20550;-68
2023/05/13 10:04:12;;;;;;;1999.90;999.90;;;14.20;99.90;;;;;;5086870;28;20185;-70
2023/05/13 10:06:39;;;;;;;1999.90;999.90;;;14.20;99.90;;;;;;5089734;28;20035;-69
2023/05/13 10:09:10;;;;;;;1999.90;999.90;;;14.20;99.90;;;;;;5086817;28;20478;-67
2023/05/13 10:11:37;;;;;;;1999.90;999.90;;;14.20;99.90;;;;;;5090875;28;20032;-69
2023/05/13 10:14:08;;;;;;;1999.90;999.90;;;14.10;99.90;;;;;;5090562;28;20024;-69
2023/05/13 10:16:35;;;;;;;1999.90;999.90;;;14.20;99.90;;;;;;5087346;28;20120;-69
2023/05/13 10:19:03;;;;;;;1999.90;999.90;;;14.10;99.90;;;;;;5067455;28;20490;-68
2023/05/13 10:21:31;;;;;;;1999.90;999.90;;;14.10;99.90;;;;;;5095652;28;20020;-67
2023/05/13 10:24:00;;;;;;;1999.90;999.90;;;14.10;99.90;;;;;;5089169;28;20036;-68
2023/05/13 10:26:28;;;;;;;1999.90;999.90;;;14.10;99.90;;;;;;5093972;28;20558;-69
2023/05/13 10:28:56;;;;;;;1999.90;999.90;;;14.10;99.90;;;;;;5092865;28;20289;-67
2023/05/13 10:31:24;;;;;;;1999.90;999.90;;;14.10;99.90;;;;;;5091847;28;20089;-67
2023/05/13 10:33:55;;;;;;;1999.90;999.90;;;14.10;99.90;;;;;;5081233;28;20342;-69
2023/05/13 10:36:53;;;;;;;1999.90;999.90;;;14.10;99.90;;;;;;5088193;28;20042;-67
2023/05/13 10:39:51;;;;;;;1999.90;999.90;;;14.10;99.90;;;;;;5085650;28;20031;-68
2023/05/13 10:42:33;;;;;;;1999.90;999.90;;;14.10;99.90;;;;;;5089501;28;20424;-68
2023/05/13 10:45:01;;;;;;;1999.90;999.90;;;14.10;99.90;;;;;;5085730;28;20031;-68
2023/05/13 10:47:32;;;;;;;1999.90;999.90;;;14.10;99.90;;;;;;5095049;28;20028;-68
2023/05/13 10:50:04;;;;;;;1999.90;999.90;;;14.20;99.90;;;;;;5093533;28;20083;-68
2023/05/13 10:52:47;;;;;;;1999.90;999.90;;;14.20;99.90;;;;;;5097456;28;20119;-68
2023/05/13 10:55:19;;;;;;;1999.90;999.90;;;14.10;99.90;;;;;;5087691;28;20043;-69
2023/05/13 10:58:09;;;;;;;1999.90;999.90;;;14.10;99.90;;;;;;5090926;28;20426;-68
2023/05/13 11:00:38;;;;;;;1999.90;999.90;;;14.10;99.90;;;;;;5091936;28;20048;-68
2023/05/13 11:03:25;;;;;;;1999.90;999.90;;;14.20;99.90;;;;;;5089341;28;20055;-68
2023/05/13 11:06:03;;;;;;;1999.90;999.90;;;14.20;99.90;;;;;;5089739;28;20024;-68
2023/05/13 11:08:41;;;;;;;1999.90;999.90;;;14.20;99.90;;;;;;5093929;28;20034;-70
2023/05/13 11:11:23;;;;;;;1999.90;999.90;;;14.20;99.90;;;;;;5076231;28;20375;-68
2023/05/13 11:14:00;;;;;;;1999.90;999.90;;;14.30;99.90;;;;;;5088190;28;20103;-69
2023/05/13 11:16:28;;;;;;;1999.90;999.90;;;14.30;99.90;;;;;;5095530;28;20031;-68
2023/05/13 11:18:55;;;;;;;1999.90;999.90;;;14.30;99.90;;;;;;5089234;28;20167;-67
2023/05/13 11:21:34;;;;;;;1999.90;999.90;;;14.40;99.90;;;;;;5094715;28;20510;-67
2023/05/13 11:24:04;;;;;;;1999.90;999.90;;;14.40;99.90;;;;;;5088752;28;20043;-68
2023/05/13 11:26:47;;;;;;;1999.90;999.90;;;14.40;99.90;;;;;;5098798;28;20020;-69
2023/05/13 11:29:15;;;;;;;1999.90;999.90;;;14.40;99.90;;;;;;5086424;28;20028;-67
2023/05/13 11:31:56;;;;;;;1999.90;999.90;;;14.40;99.90;;;;;;5087745;28;20028;-68
2023/05/13 11:34:23;;;;;;;1999.90;999.90;;;14.40;99.90;;;;;;5085195;28;20034;-69
2023/05/13 11:37:07;;;;;;;1999.90;999.90;;;14.40;99.90;;;;;;5092481;28;20082;-69
2023/05/13 11:39:35;;;;;;;1999.90;999.90;;;14.40;99.90;;;;;;5085471;28;20478;-69
2023/05/13 11:42:06;;;;;;;1999.90;999.90;;;14.40;99.90;;;;;;5094428;28;20477;-69
2023/05/13 11:44:34;;;;;;;1999.90;999.90;;;14.40;99.90;;;;;;5084696;28;20109;-67
2023/05/13 11:47:06;;;;;;;1999.90;999.90;;;14.50;99.90;;;;;;5081793;28;20224;-68
2023/05/13 11:49:46;;;;;;;1999.90;999.90;;;14.50;99.90;;;;;;5084906;28;20074;-66
2023/05/13 11:52:15;;;;;;;1999.90;999.90;;;14.50;99.90;;;;;;5094526;28;20135;-67
2023/05/13 11:54:48;;;;;;;1999.90;999.90;;;14.60;99.90;;;;;;5089107;28;20111;-68
2023/05/13 11:57:24;;;;;;;1999.90;999.90;;;14.60;99.90;;;;;;5093084;28;20490;-69
2023/05/13 11:59:56;;;;;;;1999.90;999.90;;;14.70;99.90;;;;;;5087038;28;20063;-67
2023/05/13 12:02:33;;;;;;;1999.90;999.90;;;14.70;99.90;;;;;;5091218;28;20032;-67
2023/05/13 12:05:08;;;;;;;1999.90;999.90;;;14.60;99.90;;;;;;5100029;28;20089;-67
2023/05/13 12:07:37;;;;;;;1999.90;999.90;;;14.70;99.90;;;;;;5098074;28;20050;-67
2023/05/13 12:10:06;;;;;;;1999.90;999.90;;;14.70;99.90;;;;;;5093057;28;20271;-68